Estación de San José

Ultimos registro cada 15 minutos 89
Estación Fecha / Hora Temperatura Humedad Lluvia Velocidad Dirección Radiación Presion
89 San José 06-05-2026 22:15 11,3 93 0 0 305 0 1023,9
88 San José 06-05-2026 22:00 11,4 93 0 0 305 0 1023,8
87 San José 06-05-2026 21:45 11,5 93 0 0 305 0 1024
86 San José 06-05-2026 21:30 11,6 93 0,2 0 305 0 1024
85 San José 06-05-2026 21:15 11,6 93 0 0 305 0 1023,9
84 San José 06-05-2026 21:00 11,7 93 0 0 305 0 1023,9
83 San José 06-05-2026 20:45 11,8 92 0 0 305 0 1023,7
82 San José 06-05-2026 20:30 11,9 92 0,2 0 305 0 1023,6
81 San José 06-05-2026 20:15 12,2 92 0 0 305 0 1023,5
80 San José 06-05-2026 20:00 12,3 92 0 0 305 0 1023,4
79 San José 06-05-2026 19:45 12,4 92 0 0 305 0 1023,2
78 San José 06-05-2026 19:30 12,5 92 0 0 305 0 1023,1
77 San José 06-05-2026 19:15 12,6 92 0 0 305 0 1022,8
76 San José 06-05-2026 19:00 12,6 91 0 0 305 0 1022,5
75 San José 06-05-2026 18:45 12,8 91 0 0 305 0 1022,4
74 San José 06-05-2026 18:30 12,9 91 0 0 305 0 1022,3
73 San José 06-05-2026 18:15 12,9 91 0 0 305 0 1022,1
72 San José 06-05-2026 18:00 13,1 90 0 0 305 0 1021,9
71 San José 06-05-2026 17:45 13,3 90 0 0 305 0 1021,8
70 San José 06-05-2026 17:30 13,7 89 0 0 357 11 1021,4
69 San José 06-05-2026 17:15 13,7 89 0 0 357 11 1021,4
68 San José 06-05-2026 17:00 13,9 89 0 0 357 35 1021,2
67 San José 06-05-2026 16:45 14,2 89 0 0 10 33 1020,9
66 San José 06-05-2026 16:30 14,5 89 0 0 8 60 1020,9
65 San José 06-05-2026 16:15 14,6 88 0 0 341 56 1020,8
64 San José 06-05-2026 16:00 14,7 89 0 0 347 81 1020,9
63 San José 06-05-2026 15:45 14,7 90 0 0 327 98 1020,8
62 San José 06-05-2026 15:30 14,7 92 0 0 320 169 1020,7
61 San José 06-05-2026 15:15 14,5 92 0 0 272 188 1020,6
60 San José 06-05-2026 15:00 14,4 93 0 0 309 227 1020,3
59 San José 06-05-2026 14:45 14,4 93 0 0 309 153 1019,9
58 San José 06-05-2026 14:30 14,6 93 0 0 309 153 1019,6
57 San José 06-05-2026 14:15 14,8 95 0 0 335 640 1019,6
56 San José 06-05-2026 14:00 14 94 0,2 0 326 248 1019,2
55 San José 06-05-2026 13:45 14,3 94 0 0 337 162 1019
54 San José 06-05-2026 13:30 14,3 94 0 0 297 125 1018,9
53 San José 06-05-2026 13:15 14 94 0,4 0 8 251 1018,6
52 San José 06-05-2026 13:00 13,9 94 0,4 0 38 28 1018,6
51 San José 06-05-2026 12:45 13,9 95 0 0 325 70 1018,1
50 San José 06-05-2026 12:30 13,6 95 1 0 28 120 1017,8
49 San José 06-05-2026 12:15 13,4 94 2,6 0 69 23 1017,8
48 San José 06-05-2026 12:00 13,3 94 1 0 16 19 1017,9
47 San José 06-05-2026 11:45 13,2 95 0,6 0 338 18 1018,1
46 San José 06-05-2026 11:30 12,8 95 0,2 0 335 25 1017,9
45 San José 06-05-2026 11:15 12,8 95 0,2 0 335 25 1017,9
44 San José 06-05-2026 11:00 12,6 95 0 0 358 28 1017,7
43 San José 06-05-2026 10:45 11,9 94 0 0 95 46 1017,5
42 San José 06-05-2026 10:30 11,8 94 0,2 0 130 23 1017,1
41 San José 06-05-2026 10:15 11,6 94 0,8 0 347 42 1016,9
40 San José 06-05-2026 10:00 11,5 94 2 0 351 21 1016,9
39 San José 06-05-2026 09:45 11,5 94 1 0 68 12 1016,7
38 San José 06-05-2026 09:30 11,4 93 2,4 0 9 14 1016,5
37 San José 06-05-2026 09:15 11,5 93 2 0 23 14 1016,2
36 San José 06-05-2026 09:00 11,7 93 0,2 0 351 0 1016,2
35 San José 06-05-2026 08:45 11,8 93 0 0 49 11 1016,1
34 San José 06-05-2026 08:30 11,7 93 0 0 311 32 1016,1
33 San José 06-05-2026 08:15 11,4 93 0 0 348 49 1015,8
32 San José 06-05-2026 08:00 11,3 93 0,2 0 12 9 1015,7
31 San José 06-05-2026 07:45 11,4 92 0,4 0 345 7 1015,8
30 San José 06-05-2026 07:30 11,7 92 0,2 0 348 0 1016
29 San José 06-05-2026 07:15 11,5 92 0,4 0 347 0 1015,4
28 San José 06-05-2026 07:00 10,9 94 0 0 332 0 1015,1
27 San José 06-05-2026 06:45 10,3 94 0 0 8 0 1015
26 San José 06-05-2026 06:30 9,8 94 0 0 6 0 1015,3
25 San José 06-05-2026 06:15 9,3 93 0 0 7 0 1014,9
24 San José 06-05-2026 06:00 9 93 0 0 7 0 1015,1
23 San José 06-05-2026 05:45 8,8 93 0 0 7 0 1015
22 San José 06-05-2026 05:30 8,8 92 0 0 7 0 1015,1
21 San José 06-05-2026 05:15 9,1 91 0 0 4 0 1015
20 San José 06-05-2026 05:00 9,7 92 0 0 4 0 1015,1
19 San José 06-05-2026 04:45 10,1 93 0 0 4 0 1015,2
18 San José 06-05-2026 04:30 9,9 93 0 0 4 0 1015,1
17 San José 06-05-2026 04:15 9,6 93 0 0 4 0 1015
16 San José 06-05-2026 04:00 9,2 92 0 0 4 0 1015,3
15 San José 06-05-2026 03:45 9,4 92 0 0 4 0 1015,5
14 San José 06-05-2026 03:30 9,7 92 0 0 4 0 1015,6
13 San José 06-05-2026 03:15 10,3 92 0 0 4 0 1015,6
12 San José 06-05-2026 03:00 10,7 93 0 0 4 0 1015,7
11 San José 06-05-2026 02:45 10,8 92 0 0 3 0 1015,7
10 San José 06-05-2026 02:15 11,2 92 0 0 3 0 1015,8
9 San José 06-05-2026 02:00 11,4 92 0 0 3 0 1016
8 San José 06-05-2026 01:45 11,6 92 0 0 3 0 1016,1
7 San José 06-05-2026 01:30 11,8 91 0 0 341 0 1016
6 San José 06-05-2026 01:15 11,9 91 0 0 349 0 1015,8
5 San José 06-05-2026 01:00 12,2 91 0 0 316 0 1015,7
4 San José 06-05-2026 00:45 12,4 90 0 0 323 0 1015,6
3 San José 06-05-2026 00:30 12,7 89 0 0 18 0 1015,6
2 San José 06-05-2026 00:15 12,8 89 0 0 20 0 1015,8
1 San José 06-05-2026 00:00 12,9 89 0 0 347 0 1016